createdAt,value
2022-12-22T00:02:16.804Z,99433
2022-12-22T00:08:08.324Z,99429
2022-12-22T00:13:59.724Z,99425
2022-12-22T00:19:50.601Z,99415
2022-12-22T00:25:40.658Z,99411
2022-12-22T00:31:31.255Z,99403
2022-12-22T00:37:22.545Z,99389
2022-12-22T00:43:13.443Z,99376
2022-12-22T00:49:04.518Z,99373
2022-12-22T00:54:56.624Z,99369
2022-12-22T01:00:47.792Z,99360
2022-12-22T01:06:39.987Z,99350
2022-12-22T01:12:31.415Z,99345
2022-12-22T01:18:24.334Z,99327
2022-12-22T01:24:15.015Z,99323
2022-12-22T01:30:06.389Z,99319
2022-12-22T01:35:57.618Z,99324
2022-12-22T01:41:48.590Z,99320
2022-12-22T01:47:40.603Z,99303
2022-12-22T01:53:31.620Z,99294
2022-12-22T01:59:24.993Z,99289
2022-12-22T02:05:15.638Z,99277
2022-12-22T02:11:06.959Z,99280
2022-12-22T02:16:59.139Z,99262
2022-12-22T02:22:50.220Z,99253
2022-12-22T02:28:43.014Z,99244
2022-12-22T02:34:33.594Z,99234
2022-12-22T02:40:24.191Z,99213
2022-12-22T02:46:15.651Z,99200
2022-12-22T02:52:07.675Z,99187
2022-12-22T02:58:00.449Z,99186
2022-12-22T03:03:51.054Z,99180
2022-12-22T03:09:42.723Z,99173
2022-12-22T03:15:34.908Z,99158
2022-12-22T03:21:26.917Z,99144
2022-12-22T03:27:18.757Z,99129
2022-12-22T03:33:09.489Z,99120
2022-12-22T03:38:59.691Z,99109
2022-12-22T03:44:50.607Z,99109
2022-12-22T03:50:41.913Z,99100
2022-12-22T03:56:34.690Z,99082
2022-12-22T04:02:26.411Z,99067
2022-12-22T04:08:17.712Z,99065
2022-12-22T04:14:08.665Z,99063
2022-12-22T04:19:59.153Z,99050
2022-12-22T04:25:50.751Z,99042
2022-12-22T04:31:42.824Z,99027
2022-12-22T04:37:35.280Z,99020
2022-12-22T04:43:24.011Z,99011
2022-12-22T04:49:14.763Z,99004
2022-12-22T04:55:05.572Z,98990
2022-12-22T05:00:56.730Z,98983
2022-12-22T05:06:49.283Z,98961
2022-12-22T05:12:42.756Z,98959
2022-12-22T05:18:34.150Z,98969
2022-12-22T05:24:27.213Z,98966
2022-12-22T05:30:18.555Z,98964
2022-12-22T05:36:09.926Z,98974
2022-12-22T05:42:00.988Z,98959
2022-12-22T05:49:06.257Z,98971
2022-12-22T05:54:58.364Z,98978
2022-12-22T06:00:53.454Z,98979
2022-12-22T06:07:19.153Z,98989
2022-12-22T06:13:25.530Z,98985
2022-12-22T06:19:30.813Z,98992
2022-12-22T06:25:24.789Z,98993
2022-12-22T06:31:17.107Z,99004
2022-12-22T06:37:10.915Z,98998
2022-12-22T06:43:30.164Z,99004
2022-12-22T06:49:19.757Z,99016
2022-12-22T06:55:15.663Z,99033
2022-12-22T07:01:06.508Z,99045
2022-12-22T07:06:57.875Z,99065
2022-12-22T07:12:47.674Z,99081
2022-12-22T07:18:39.763Z,99091
2022-12-22T07:24:31.893Z,99102
2022-12-22T07:30:24.206Z,99114
2022-12-22T07:36:22.378Z,99117
2022-12-22T07:42:13.668Z,99125
2022-12-22T07:48:05.011Z,99134
2022-12-22T08:00:14.199Z,99154
2022-12-22T08:06:17.083Z,99163
2022-12-22T08:12:34.592Z,99167
2022-12-22T08:18:32.571Z,99178
2022-12-22T08:24:32.192Z,99186
2022-12-22T08:30:27.795Z,99199
2022-12-22T08:36:23.156Z,99214
2022-12-22T08:42:34.132Z,99225
2022-12-22T08:48:30.457Z,99243
2022-12-22T08:54:22.226Z,99252
2022-12-22T09:00:28.378Z,99263
2022-12-22T09:06:40.717Z,99270
2022-12-22T09:12:34.124Z,99278
2022-12-22T09:18:25.122Z,99289
2022-12-22T09:24:17.298Z,99310
2022-12-22T09:30:10.545Z,99341
2022-12-22T09:36:11.510Z,99361
2022-12-22T09:42:02.495Z,99379
2022-12-22T09:47:56.325Z,99399
2022-12-22T09:53:47.820Z,99419
2022-12-22T09:59:40.149Z,99428
2022-12-22T10:05:30.779Z,99436
2022-12-22T10:11:20.655Z,99450
2022-12-22T10:17:11.294Z,99445
2022-12-22T10:23:05.270Z,99455
2022-12-22T10:28:53.794Z,99454
2022-12-22T10:34:43.911Z,99468
2022-12-22T10:40:35.779Z,99469
2022-12-22T10:46:24.853Z,99475
2022-12-22T10:52:15.287Z,99491
2022-12-22T10:58:10.727Z,99490
2022-12-22T11:04:03.129Z,99517
2022-12-22T11:09:53.081Z,99519
2022-12-22T11:15:44.658Z,99530
2022-12-22T11:21:48.682Z,99540
2022-12-22T12:01:32.808Z,99578
2022-12-22T12:07:30.436Z,99596
2022-12-22T12:13:38.534Z,99616
2022-12-22T12:19:31.740Z,99605
2022-12-22T12:25:31.587Z,99610
2022-12-22T12:31:28.293Z,99614
2022-12-22T12:37:27.638Z,99622
2022-12-22T12:43:19.619Z,99625
2022-12-22T12:49:09.406Z,99619
2022-12-22T12:54:59.187Z,99619
2022-12-22T13:01:00.972Z,99618
2022-12-22T13:06:53.801Z,99625
2022-12-22T13:12:43.954Z,99622
2022-12-22T13:18:33.857Z,99623
2022-12-22T13:24:31.165Z,99618
2022-12-22T13:30:21.499Z,99621
2022-12-22T13:36:12.166Z,99618
2022-12-22T13:42:05.244Z,99626
2022-12-22T13:47:56.704Z,99635
2022-12-22T13:54:20.155Z,99645
2022-12-22T14:01:18.097Z,99656
2022-12-22T14:07:08.461Z,99648
2022-12-22T14:12:59.423Z,99658
2022-12-22T14:18:50.404Z,99657
2022-12-22T14:24:42.010Z,99658
2022-12-22T14:30:40.298Z,99653
2022-12-22T14:36:29.748Z,99644
2022-12-22T14:42:18.902Z,99645
2022-12-22T14:48:08.135Z,99636
2022-12-22T14:53:59.830Z,99629
2022-12-22T14:59:49.680Z,99623
2022-12-22T15:05:39.552Z,99627
2022-12-22T15:11:29.269Z,99608
2022-12-22T15:17:20.488Z,99611
2022-12-22T15:23:11.211Z,99600
2022-12-22T15:29:00.938Z,99606
2022-12-22T15:34:51.016Z,99590
2022-12-22T15:40:40.527Z,99587
2022-12-22T15:46:29.719Z,99579
2022-12-22T15:52:22.301Z,99576
2022-12-22T15:58:12.006Z,99565
2022-12-22T16:04:02.280Z,99571
2022-12-22T16:09:54.092Z,99563
2022-12-22T16:15:49.500Z,99562
2022-12-22T16:21:50.218Z,99556
2022-12-22T16:27:40.885Z,99566
2022-12-22T16:33:33.552Z,99555
2022-12-22T16:39:28.385Z,99549
2022-12-22T16:45:19.808Z,99532
2022-12-22T16:51:14.001Z,99528
2022-12-22T16:57:07.410Z,99518
2022-12-22T17:03:00.371Z,99520
2022-12-22T17:08:52.332Z,99514
2022-12-22T17:14:44.548Z,99508
2022-12-22T17:20:35.714Z,99495
2022-12-22T17:26:27.104Z,99501
2022-12-22T17:32:22.947Z,99489
2022-12-22T17:38:15.731Z,99476
2022-12-22T17:44:10.592Z,99468
2022-12-22T17:50:10.823Z,99462
2022-12-22T17:56:12.875Z,99470
2022-12-22T18:02:05.259Z,99454
2022-12-22T18:07:55.964Z,99433
2022-12-22T18:13:48.172Z,99432
2022-12-22T18:19:39.693Z,99417
2022-12-22T18:25:29.177Z,99415
2022-12-22T18:31:19.031Z,99412
2022-12-22T18:37:09.756Z,99403
2022-12-22T18:43:02.534Z,99393
2022-12-22T18:48:59.012Z,99391
2022-12-22T18:54:53.729Z,99378
2022-12-22T19:00:44.184Z,99385
2022-12-22T19:06:36.299Z,99374
2022-12-22T19:12:28.446Z,99374
2022-12-22T19:18:28.939Z,99366
2022-12-22T19:24:18.292Z,99373
2022-12-22T19:30:08.810Z,99363
2022-12-22T19:35:58.652Z,99344
2022-12-22T19:41:49.336Z,99331
2022-12-22T19:47:39.792Z,99324
2022-12-22T19:53:28.193Z,99326
2022-12-22T19:59:27.246Z,99323
2022-12-22T20:05:26.072Z,99314
2022-12-22T20:11:22.099Z,99317
2022-12-22T20:17:11.802Z,99312
2022-12-22T20:23:02.723Z,99308
2022-12-22T20:28:52.608Z,99306
2022-12-22T20:34:42.833Z,99303
2022-12-22T20:40:32.492Z,99301
2022-12-22T20:46:23.145Z,99303
2022-12-22T20:52:11.726Z,99304
2022-12-22T20:58:01.708Z,99303
2022-12-22T21:03:52.781Z,99302
2022-12-22T21:09:42.424Z,99308
2022-12-22T21:15:31.144Z,99304
2022-12-22T21:21:21.620Z,99300
2022-12-22T21:27:13.682Z,99294
2022-12-22T21:33:04.827Z,99285
2022-12-22T21:38:54.950Z,99285
2022-12-22T21:44:47.245Z,99283
2022-12-22T21:50:37.482Z,99271
2022-12-22T21:56:34.087Z,99269
2022-12-22T22:02:24.015Z,99265
2022-12-22T22:08:15.253Z,99259
2022-12-22T22:14:05.995Z,99276
2022-12-22T22:19:56.295Z,99283
2022-12-22T22:25:46.665Z,99280
2022-12-22T22:31:39.034Z,99279
2022-12-22T22:37:28.011Z,99279
2022-12-22T22:43:19.041Z,99279
2022-12-22T22:49:12.272Z,99289
2022-12-22T22:55:03.159Z,99291
2022-12-22T23:00:53.609Z,99290
2022-12-22T23:06:43.517Z,99286
2022-12-22T23:12:35.587Z,99288
2022-12-22T23:18:26.863Z,99288
2022-12-22T23:24:17.003Z,99281
2022-12-22T23:30:05.320Z,99296
2022-12-22T23:35:53.686Z,99280
2022-12-22T23:41:43.684Z,99286
2022-12-22T23:47:33.635Z,99285
2022-12-22T23:53:24.307Z,99280
2022-12-22T23:59:13.486Z,99276
